Terminal Aerodrome Forecast
Issued by NWS Quad Cities IA IL

Home | Current Version | Previous Version | Text Only | Print | Product List | Glossary On
Versions: 1 2 3 4 5 6 7 8 9 10 11 12 13 14 15 16 17 18 19
000
FTUS43 KDVN 241427 AAA
TAFDBQ
TAF AMD
KDBQ 241427Z 2414/2512 15005KT P6SM VCSH BKN005
      TEMPO 2415/2418 BKN015
     FM242100 20007KT P6SM VCSH SCT025 BKN035 PROB30 2423/2503 3SM
      -TSRA BR BKN020CB
     FM250300 34006KT P6SM SCT015 BKN035=

USA.gov is the U.S. government's official web portal to all federal, state and local government web resources and services.